createdAt,value
2023-03-26T00:01:16.769Z,13.15
2023-03-26T00:03:46.872Z,12.85
2023-03-26T00:06:16.198Z,9.20
2023-03-26T00:08:45.656Z,8.30
2023-03-26T00:11:15.895Z,11.38
2023-03-26T00:13:43.976Z,12.45
2023-03-26T00:16:13.575Z,11.52
2023-03-26T00:18:42.585Z,10.85
2023-03-26T00:21:13.385Z,9.68
2023-03-26T00:23:41.493Z,17.25
2023-03-26T00:26:12.802Z,12.73
2023-03-26T00:28:41.443Z,7.90
2023-03-26T00:31:12.186Z,9.48
2023-03-26T00:33:40.716Z,8.52
2023-03-26T00:36:10.833Z,11.30
2023-03-26T00:38:39.061Z,12.85
2023-03-26T00:41:17.847Z,9.38
2023-03-26T00:43:48.862Z,11.70
2023-03-26T00:46:17.491Z,4.90
2023-03-26T00:48:46.058Z,9.43
2023-03-26T00:51:15.757Z,10.95
2023-03-26T00:53:45.239Z,8.95
2023-03-26T00:56:12.905Z,6.97
2023-03-26T00:58:40.557Z,8.15
2023-03-26T01:01:13.766Z,6.57
2023-03-26T01:03:48.012Z,11.98
2023-03-26T01:06:28.383Z,7.13
2023-03-26T01:08:59.935Z,12.75
2023-03-26T01:11:30.986Z,11.50
2023-03-26T01:14:04.721Z,6.13
2023-03-26T01:16:46.670Z,6.22
2023-03-26T01:19:29.238Z,10.25
2023-03-26T01:21:57.464Z,5.22
2023-03-26T01:24:24.016Z,10.18
2023-03-26T01:27:04.331Z,12.05
2023-03-26T01:29:43.979Z,6.95
2023-03-26T01:32:35.748Z,11.45
2023-03-26T01:35:32.184Z,5.88
2023-03-26T01:38:10.570Z,11.43
2023-03-26T01:40:46.641Z,8.68
2023-03-26T01:43:39.310Z,9.02
2023-03-26T01:46:09.351Z,11.43
2023-03-26T01:48:39.773Z,11.48
2023-03-26T01:53:37.812Z,5.50
2023-03-26T01:56:16.589Z,16.10
2023-03-26T01:59:00.785Z,8.98
2023-03-26T02:01:38.010Z,8.50
2023-03-26T02:04:57.674Z,7.03
2023-03-26T02:07:40.585Z,4.63
2023-03-26T02:12:41.231Z,6.05
2023-03-26T02:15:08.392Z,7.30
2023-03-26T02:17:35.220Z,9.68
2023-03-26T02:20:05.825Z,5.90
2023-03-26T02:22:40.599Z,6.47
2023-03-26T02:25:09.924Z,4.85
2023-03-26T02:27:37.941Z,6.47
2023-03-26T02:30:10.136Z,8.65
2023-03-26T02:32:38.895Z,9.25
2023-03-26T02:35:06.894Z,11.38
2023-03-26T02:37:34.065Z,9.70
2023-03-26T02:40:11.587Z,9.50
2023-03-26T02:42:40.807Z,7.55
2023-03-26T02:45:07.890Z,15.07
2023-03-26T02:48:09.425Z,6.00
2023-03-26T02:53:57.039Z,8.32
2023-03-26T02:56:42.412Z,7.32
2023-03-26T02:59:31.911Z,7.50
2023-03-26T03:02:18.256Z,9.95
2023-03-26T03:04:45.864Z,11.50
2023-03-26T03:07:14.855Z,10.02
2023-03-26T03:09:41.786Z,14.02
2023-03-26T03:12:26.867Z,10.98
2023-03-26T03:14:53.416Z,14.73
2023-03-26T03:17:20.885Z,18.67
2023-03-26T03:19:47.460Z,26.77
2023-03-26T03:22:14.187Z,12.73
2023-03-26T03:24:43.736Z,24.23
2023-03-26T03:27:10.421Z,22.98
2023-03-26T03:29:43.875Z,20.33
2023-03-26T03:32:36.916Z,16.30
2023-03-26T03:35:05.271Z,26.70
2023-03-26T03:37:31.797Z,18.65
2023-03-26T03:39:59.225Z,17.00
2023-03-26T03:42:28.153Z,16.63
2023-03-26T03:44:57.521Z,26.20
2023-03-26T03:47:46.958Z,24.98
2023-03-26T03:50:16.706Z,24.13
2023-03-26T03:52:59.072Z,26.35
2023-03-26T03:55:27.610Z,17.33
2023-03-26T03:57:54.581Z,16.92
2023-03-26T04:00:24.252Z,22.20
2023-03-26T04:03:09.059Z,17.48
2023-03-26T04:05:36.373Z,20.63
2023-03-26T04:08:02.875Z,21.17
2023-03-26T04:10:51.491Z,28.95
2023-03-26T04:13:37.240Z,17.45
2023-03-26T04:16:25.208Z,21.35
2023-03-26T04:18:51.841Z,23.92
2023-03-26T04:21:19.351Z,19.77
2023-03-26T04:23:45.991Z,26.98
2023-03-26T04:26:23.657Z,19.35
2023-03-26T04:29:06.262Z,28.45
2023-03-26T04:31:34.119Z,19.42
2023-03-26T04:34:18.366Z,23.13
2023-03-26T04:36:56.539Z,23.73
2023-03-26T04:39:29.559Z,24.77
2023-03-26T04:42:19.937Z,25.83
2023-03-26T04:45:03.058Z,24.67
2023-03-26T04:47:30.114Z,22.40
2023-03-26T04:49:56.609Z,14.02
2023-03-26T04:52:23.726Z,18.98
2023-03-26T04:55:25.257Z,21.27
2023-03-26T04:58:03.394Z,21.42
2023-03-26T05:00:55.225Z,19.13
2023-03-26T05:03:21.878Z,20.67
2023-03-26T05:05:51.435Z,18.00
2023-03-26T05:08:18.081Z,23.30
2023-03-26T05:10:44.703Z,24.45
2023-03-26T05:13:15.671Z,19.52
2023-03-26T05:15:49.712Z,16.83
2023-03-26T05:18:38.932Z,19.83
2023-03-26T05:21:06.038Z,27.73
2023-03-26T05:23:33.499Z,29.80
2023-03-26T05:26:20.386Z,24.33
2023-03-26T05:28:47.440Z,15.80
2023-03-26T05:31:32.543Z,16.38
2023-03-26T05:34:00.614Z,21.98
2023-03-26T05:36:30.680Z,27.80
2023-03-26T05:39:07.184Z,23.90
2023-03-26T05:41:53.786Z,19.67
2023-03-26T05:44:24.930Z,22.15
2023-03-26T05:46:53.696Z,21.50
2023-03-26T05:49:24.027Z,20.60
2023-03-26T05:51:52.761Z,20.55
2023-03-26T05:54:33.644Z,21.35
2023-03-26T05:57:32.694Z,24.23
2023-03-26T06:00:18.450Z,29.33
2023-03-26T06:02:47.967Z,28.08
2023-03-26T06:05:37.174Z,24.25
2023-03-26T06:08:12.567Z,21.02
2023-03-26T06:10:39.850Z,24.70
2023-03-26T06:13:06.714Z,29.13
2023-03-26T06:15:36.339Z,22.30
2023-03-26T06:18:11.929Z,25.17
2023-03-26T06:21:08.455Z,17.90
2023-03-26T06:23:43.797Z,15.77
2023-03-26T06:26:17.687Z,18.00
2023-03-26T06:28:55.247Z,21.40
2023-03-26T06:31:42.212Z,19.92
2023-03-26T06:34:25.185Z,20.13
2023-03-26T06:36:52.707Z,18.23
2023-03-26T06:39:20.716Z,18.52
2023-03-26T06:41:56.962Z,27.90
2023-03-26T06:44:45.966Z,16.40
2023-03-26T06:47:30.969Z,23.23
2023-03-26T06:50:16.511Z,17.05
2023-03-26T06:53:03.325Z,24.90
2023-03-26T06:55:42.245Z,22.45
2023-03-26T06:58:38.926Z,24.75
2023-03-26T07:01:24.076Z,20.67
2023-03-26T07:04:08.916Z,15.77
2023-03-26T07:06:56.114Z,15.80
2023-03-26T07:09:42.740Z,22.98
2023-03-26T07:12:28.192Z,21.05
2023-03-26T07:15:30.273Z,27.65
2023-03-26T07:18:01.267Z,15.40
2023-03-26T07:20:32.581Z,15.73
2023-03-26T07:22:59.487Z,22.05
2023-03-26T07:25:34.522Z,20.50
2023-03-26T07:28:41.775Z,20.50
2023-03-26T07:32:08.012Z,17.25
2023-03-26T07:34:47.581Z,22.02
2023-03-26T07:37:43.748Z,21.17
2023-03-26T07:40:52.419Z,18.27
2023-03-26T07:43:46.919Z,14.98
2023-03-26T07:46:34.976Z,19.30
2023-03-26T07:49:20.508Z,23.90
2023-03-26T07:52:19.218Z,22.67
2023-03-26T07:55:06.064Z,22.95
2023-03-26T07:58:23.316Z,29.67
2023-03-26T08:01:28.178Z,17.38
2023-03-26T08:04:23.632Z,25.95
2023-03-26T08:07:23.234Z,23.85
2023-03-26T08:10:26.118Z,34.60
2023-03-26T08:13:16.744Z,23.95
2023-03-26T08:15:53.518Z,13.73
2023-03-26T08:18:35.673Z,23.63
2023-03-26T08:21:13.963Z,28.60
2023-03-26T08:24:18.962Z,20.77
2023-03-26T08:27:40.837Z,21.55
2023-03-26T08:30:24.920Z,19.40
2023-03-26T08:32:57.419Z,17.05
2023-03-26T08:35:25.520Z,25.60
2023-03-26T08:37:59.720Z,17.02
2023-03-26T08:40:47.992Z,24.05
2023-03-26T08:46:32.049Z,21.60
2023-03-26T08:49:20.373Z,16.35
2023-03-26T08:52:05.580Z,23.35
2023-03-26T08:54:34.708Z,28.85
2023-03-26T08:57:30.989Z,18.75
2023-03-26T09:00:35.612Z,23.05
2023-03-26T09:03:15.582Z,20.23
2023-03-26T09:06:17.014Z,18.08
2023-03-26T09:11:42.326Z,17.65
2023-03-26T09:14:41.318Z,25.08
2023-03-26T09:17:41.989Z,30.90
2023-03-26T09:20:42.728Z,22.10
2023-03-26T09:23:29.489Z,21.20
2023-03-26T09:26:01.730Z,20.35
2023-03-26T09:29:11.861Z,20.13
2023-03-26T09:31:47.102Z,23.50
2023-03-26T09:34:29.901Z,16.05
2023-03-26T09:40:05.206Z,20.02
2023-03-26T09:42:44.518Z,16.70
2023-03-26T09:45:20.993Z,15.80
2023-03-26T09:48:25.450Z,19.13
2023-03-26T09:51:04.431Z,18.55
2023-03-26T09:54:06.003Z,19.55
2023-03-26T09:56:48.002Z,21.10
2023-03-26T09:59:28.318Z,18.95
2023-03-26T10:02:46.733Z,17.27
2023-03-26T10:05:44.746Z,15.07
2023-03-26T10:08:28.793Z,17.95
2023-03-26T10:11:40.983Z,18.17
2023-03-26T10:14:24.495Z,14.25
2023-03-26T10:17:17.459Z,10.27
2023-03-26T10:19:50.027Z,12.52
2023-03-26T10:22:23.388Z,11.02
2023-03-26T10:25:27.049Z,16.92
2023-03-26T10:28:08.675Z,12.18
2023-03-26T10:30:47.016Z,14.68
2023-03-26T10:33:31.078Z,12.63
2023-03-26T10:36:39.208Z,9.15
2023-03-26T10:39:43.612Z,12.90
2023-03-26T10:42:36.170Z,7.78
2023-03-26T10:45:16.058Z,9.40
2023-03-26T10:48:20.038Z,7.82
2023-03-26T10:50:56.177Z,9.38
2023-03-26T10:53:30.893Z,14.13
2023-03-26T10:56:07.288Z,7.22
2023-03-26T10:58:49.236Z,8.02
2023-03-26T11:01:31.853Z,12.50
2023-03-26T11:04:14.702Z,7.93
2023-03-26T11:09:35.660Z,7.82
2023-03-26T11:12:26.738Z,11.85
2023-03-26T11:15:27.865Z,7.80
2023-03-26T11:18:01.483Z,9.27
2023-03-26T11:20:53.351Z,11.27
2023-03-26T11:23:37.656Z,8.52
2023-03-26T11:26:51.961Z,11.82
2023-03-26T11:29:54.665Z,12.40
2023-03-26T11:32:27.113Z,9.80
2023-03-26T11:35:04.150Z,8.20
2023-03-26T11:37:41.566Z,8.02
2023-03-26T11:40:21.439Z,8.70
2023-03-26T11:42:51.794Z,9.65
2023-03-26T11:45:21.910Z,8.65
2023-03-26T11:47:52.734Z,11.30
2023-03-26T11:50:27.135Z,8.40
2023-03-26T11:52:58.735Z,8.98
2023-03-26T11:55:27.191Z,8.75
2023-03-26T11:57:57.639Z,11.32
2023-03-26T12:02:59.056Z,7.25
2023-03-26T12:05:36.611Z,7.75
2023-03-26T12:08:17.698Z,15.13
2023-03-26T12:10:53.785Z,13.35
2023-03-26T12:13:43.152Z,10.77
2023-03-26T12:16:19.748Z,14.27
2023-03-26T12:18:58.050Z,7.78
2023-03-26T12:21:24.592Z,8.75
2023-03-26T12:23:56.774Z,8.50
2023-03-26T12:26:48.998Z,9.15
2023-03-26T12:29:18.819Z,9.48
2023-03-26T12:31:55.488Z,9.80
2023-03-26T12:34:30.761Z,10.50
2023-03-26T12:37:01.480Z,11.35
2023-03-26T12:40:07.852Z,6.13
2023-03-26T12:44:46.872Z,12.20
2023-03-26T12:45:22.587Z,8.75
2023-03-26T12:48:01.903Z,6.20
2023-03-26T12:50:51.452Z,12.50
2023-03-26T12:53:45.984Z,10.35
2023-03-26T12:56:21.906Z,8.05
2023-03-26T12:59:00.781Z,9.75
2023-03-26T13:02:04.855Z,11.00
2023-03-26T13:05:05.089Z,10.75
2023-03-26T13:07:48.776Z,12.95
2023-03-26T13:10:32.782Z,6.95
2023-03-26T13:13:27.258Z,13.77
2023-03-26T13:16:02.112Z,8.73
2023-03-26T13:18:56.871Z,9.63
2023-03-26T13:21:45.952Z,9.50
2023-03-26T13:24:15.277Z,5.75
2023-03-26T13:26:54.168Z,6.28
2023-03-26T13:29:27.837Z,6.43
2023-03-26T13:32:18.499Z,8.25
2023-03-26T13:34:47.894Z,8.02
2023-03-26T13:37:21.555Z,8.68
2023-03-26T13:40:15.978Z,12.18
2023-03-26T13:43:09.552Z,8.18
2023-03-26T13:45:42.678Z,6.75
2023-03-26T13:48:16.303Z,5.30
2023-03-26T13:50:47.360Z,8.52
2023-03-26T13:53:25.288Z,7.93
2023-03-26T13:55:57.295Z,6.95
2023-03-26T13:58:34.253Z,8.85
2023-03-26T14:01:11.025Z,7.57
2023-03-26T14:03:53.070Z,9.73
2023-03-26T14:06:43.410Z,5.15
2023-03-26T14:09:19.892Z,8.93
2023-03-26T14:14:34.949Z,5.40
2023-03-26T14:17:15.665Z,8.00
2023-03-26T14:20:05.341Z,9.40
2023-03-26T14:23:09.642Z,5.53
2023-03-26T14:25:39.156Z,6.47
2023-03-26T14:28:36.415Z,6.70
2023-03-26T14:31:30.407Z,6.40
2023-03-26T14:33:59.889Z,2.80
2023-03-26T14:36:59.122Z,5.25
2023-03-26T14:39:54.468Z,7.90
2023-03-26T14:42:46.655Z,9.48
2023-03-26T14:45:34.915Z,4.53
2023-03-26T14:48:32.165Z,5.05
2023-03-26T14:51:25.579Z,4.05
2023-03-26T14:54:05.634Z,5.00
2023-03-26T14:56:54.181Z,4.28
2023-03-26T14:59:32.992Z,4.10
2023-03-26T15:02:29.302Z,5.78
2023-03-26T15:05:11.534Z,8.73
2023-03-26T15:07:56.153Z,5.03
2023-03-26T15:11:04.956Z,8.10
2023-03-26T15:13:59.281Z,9.65
2023-03-26T15:16:52.347Z,9.27
2023-03-26T15:19:57.348Z,7.10
2023-03-26T15:22:51.955Z,7.55
2023-03-26T15:25:45.159Z,3.95
2023-03-26T15:28:48.924Z,6.60
2023-03-26T15:31:38.681Z,7.82
2023-03-26T15:34:27.461Z,5.13
2023-03-26T15:37:10.701Z,6.50
2023-03-26T15:40:09.485Z,7.28
2023-03-26T15:43:14.363Z,8.45
2023-03-26T15:45:41.465Z,7.07
2023-03-26T15:48:11.774Z,5.25
2023-03-26T15:50:54.647Z,4.30
2023-03-26T15:56:17.843Z,6.45
2023-03-26T15:59:08.372Z,8.13
2023-03-26T16:02:10.004Z,12.18
2023-03-26T16:04:53.965Z,6.05
2023-03-26T16:07:38.939Z,7.78
2023-03-26T16:10:30.633Z,7.35
2023-03-26T16:13:22.162Z,8.00
2023-03-26T16:16:04.062Z,6.60
2023-03-26T16:18:35.765Z,8.45
2023-03-26T16:21:32.400Z,4.32
2023-03-26T16:24:02.826Z,3.30
2023-03-26T16:26:44.536Z,5.03
2023-03-26T16:29:14.255Z,4.63
2023-03-26T16:31:58.016Z,8.50
2023-03-26T16:34:57.224Z,10.25
2023-03-26T16:37:37.335Z,3.55
2023-03-26T16:40:22.595Z,6.35
2023-03-26T16:42:57.465Z,3.00
2023-03-26T16:45:54.872Z,3.80
2023-03-26T16:48:43.306Z,5.22
2023-03-26T16:51:34.667Z,7.25
2023-03-26T16:54:24.309Z,4.95
2023-03-26T16:57:08.447Z,6.80
2023-03-26T17:00:08.021Z,3.38
2023-03-26T17:02:50.507Z,7.50
2023-03-26T17:05:34.187Z,7.22
2023-03-26T17:08:36.487Z,6.32
2023-03-26T17:11:27.227Z,3.72
2023-03-26T17:14:12.414Z,4.63
2023-03-26T17:17:07.285Z,4.28
2023-03-26T17:20:13.306Z,6.88
2023-03-26T17:22:43.052Z,4.20
2023-03-26T17:25:36.504Z,7.45
2023-03-26T17:28:52.395Z,3.38
2023-03-26T17:31:23.804Z,4.28
2023-03-26T17:33:52.290Z,4.40
2023-03-26T17:36:39.827Z,5.28
2023-03-26T17:39:21.510Z,7.55
2023-03-26T17:42:13.399Z,3.35
2023-03-26T17:44:44.780Z,9.23
2023-03-26T17:47:22.433Z,3.80
2023-03-26T17:49:53.618Z,4.10
2023-03-26T17:52:33.856Z,4.65
2023-03-26T17:55:01.981Z,6.25
2023-03-26T17:57:42.839Z,11.25
2023-03-26T18:00:19.804Z,2.97
2023-03-26T18:03:18.007Z,4.95
2023-03-26T18:05:46.048Z,5.38
2023-03-26T18:08:50.925Z,4.68
2023-03-26T18:11:37.009Z,7.80
2023-03-26T18:14:27.473Z,4.03
2023-03-26T18:16:59.201Z,4.38
2023-03-26T18:19:26.922Z,3.13
2023-03-26T18:21:57.129Z,3.55
2023-03-26T18:24:32.498Z,4.30
2023-03-26T18:27:04.915Z,7.45
2023-03-26T18:29:35.302Z,5.60
2023-03-26T18:32:19.720Z,3.88
2023-03-26T18:34:49.899Z,4.38
2023-03-26T18:37:22.555Z,5.07
2023-03-26T18:39:57.034Z,6.57
2023-03-26T18:42:24.654Z,7.55
2023-03-26T18:44:52.341Z,6.65
2023-03-26T18:47:20.616Z,4.70
2023-03-26T18:49:49.740Z,10.48
2023-03-26T18:52:19.420Z,8.55
2023-03-26T18:54:53.770Z,5.72
2023-03-26T18:57:23.349Z,2.47
2023-03-26T18:59:53.774Z,5.03
2023-03-26T19:02:22.082Z,4.30
2023-03-26T19:04:50.790Z,7.15
2023-03-26T19:07:24.931Z,4.95
2023-03-26T19:09:56.406Z,3.42
2023-03-26T19:12:37.367Z,6.40
2023-03-26T19:15:10.077Z,6.10
2023-03-26T19:17:41.607Z,5.95
2023-03-26T19:20:17.360Z,4.72
2023-03-26T19:22:45.144Z,2.88
2023-03-26T19:25:33.057Z,5.72
2023-03-26T19:27:59.751Z,6.97
2023-03-26T19:30:43.476Z,7.28
2023-03-26T19:33:17.080Z,9.75
2023-03-26T19:35:50.722Z,8.25
2023-03-26T19:38:28.967Z,4.13
2023-03-26T19:40:57.331Z,9.80
2023-03-26T19:43:25.552Z,4.25
2023-03-26T19:46:00.601Z,5.45
2023-03-26T19:48:45.357Z,3.78
2023-03-26T19:51:20.416Z,5.55
2023-03-26T19:53:52.906Z,5.63
2023-03-26T19:56:21.368Z,5.25
2023-03-26T19:58:57.890Z,5.90
2023-03-26T20:01:27.836Z,4.63
2023-03-26T20:03:58.139Z,5.20
2023-03-26T20:09:16.248Z,2.28
2023-03-26T20:11:42.856Z,4.95
2023-03-26T20:14:25.919Z,7.75
2023-03-26T20:16:52.929Z,6.15
2023-03-26T20:19:22.988Z,5.65
2023-03-26T20:21:52.789Z,3.33
2023-03-26T20:24:21.468Z,11.88
2023-03-26T20:26:50.477Z,3.95
2023-03-26T20:29:17.578Z,4.22
2023-03-26T20:31:44.435Z,4.10
2023-03-26T20:34:29.078Z,6.85
2023-03-26T20:36:55.791Z,3.65
2023-03-26T20:39:23.570Z,3.20
2023-03-26T20:41:53.523Z,5.30
2023-03-26T20:44:23.770Z,4.57
2023-03-26T20:46:50.786Z,5.80
2023-03-26T20:49:18.382Z,7.00
2023-03-26T20:51:46.478Z,4.03
2023-03-26T20:54:16.177Z,4.80
2023-03-26T20:56:42.836Z,5.78
2023-03-26T20:59:11.694Z,5.72
2023-03-26T21:01:38.702Z,3.03
2023-03-26T21:04:06.797Z,3.67
2023-03-26T21:06:33.313Z,2.70
2023-03-26T21:09:00.203Z,1.77
2023-03-26T21:11:44.959Z,7.25
2023-03-26T21:14:22.944Z,4.45
2023-03-26T21:16:50.047Z,5.40
2023-03-26T21:19:16.890Z,5.28
2023-03-26T21:24:46.092Z,7.65
2023-03-26T21:27:22.667Z,2.47
2023-03-26T21:29:52.752Z,8.20
2023-03-26T21:32:20.336Z,5.72
2023-03-26T21:34:55.561Z,4.72
2023-03-26T21:37:24.904Z,5.95
2023-03-26T21:39:51.639Z,2.38
2023-03-26T21:42:18.539Z,1.55
2023-03-26T21:44:46.044Z,4.93
2023-03-26T21:47:12.940Z,0.98
2023-03-26T21:49:39.756Z,4.55
2023-03-26T21:52:06.558Z,2.42
2023-03-26T21:54:33.377Z,4.05
2023-03-26T21:57:27.978Z,2.50
2023-03-26T22:00:08.203Z,2.75
2023-03-26T22:02:42.462Z,2.35
2023-03-26T22:05:21.012Z,5.50
2023-03-26T22:08:01.664Z,5.78
2023-03-26T22:10:29.637Z,5.80
2023-03-26T22:12:56.355Z,6.70
2023-03-26T22:15:25.208Z,5.90
2023-03-26T22:17:55.778Z,3.15
2023-03-26T22:20:24.997Z,3.17
2023-03-26T22:22:53.040Z,5.40
2023-03-26T22:25:20.898Z,1.88
2023-03-26T22:27:48.960Z,3.67
2023-03-26T22:30:16.352Z,4.72
2023-03-26T22:32:43.641Z,2.30
2023-03-26T22:35:10.546Z,6.70
2023-03-26T22:37:37.907Z,4.60
2023-03-26T22:40:08.392Z,7.03
2023-03-26T22:42:36.191Z,4.72
2023-03-26T22:45:04.033Z,4.10
2023-03-26T22:47:35.338Z,2.83
2023-03-26T22:50:03.819Z,1.15
2023-03-26T22:52:31.162Z,7.20
2023-03-26T22:54:57.879Z,3.15
2023-03-26T22:57:24.566Z,5.55
2023-03-26T22:59:52.249Z,6.93
2023-03-26T23:02:19.798Z,4.15
2023-03-26T23:04:47.887Z,2.65
2023-03-26T23:07:14.903Z,1.13
2023-03-26T23:09:41.657Z,3.35
2023-03-26T23:12:08.352Z,5.63
2023-03-26T23:14:34.872Z,6.55
2023-03-26T23:17:01.533Z,1.63
2023-03-26T23:19:29.928Z,1.88
2023-03-26T23:21:57.350Z,4.70
2023-03-26T23:24:26.504Z,2.30
2023-03-26T23:26:53.205Z,3.72
2023-03-26T23:29:19.928Z,1.88
2023-03-26T23:31:46.607Z,3.72
2023-03-26T23:34:15.348Z,4.57
2023-03-26T23:36:42.242Z,9.57
2023-03-26T23:39:09.221Z,3.13
2023-03-26T23:41:36.722Z,1.83
2023-03-26T23:44:04.210Z,6.00
2023-03-26T23:46:32.897Z,2.88
2023-03-26T23:49:03.800Z,3.45
2023-03-26T23:51:30.680Z,1.40
2023-03-26T23:53:57.780Z,3.30
2023-03-26T23:56:24.470Z,5.00
2023-03-26T23:58:51.126Z,1.85
